createdAt,value
2018-12-04T00:01:34.704Z,11.53
2018-12-04T00:06:38.671Z,5.97
2018-12-04T00:11:41.744Z,5.93
2018-12-04T00:16:44.837Z,8.53
2018-12-04T00:21:47.993Z,9.37
2018-12-04T00:26:51.114Z,9.80
2018-12-04T00:31:54.230Z,8.27
2018-12-04T00:36:57.321Z,6.80
2018-12-04T00:42:00.418Z,6.17
2018-12-04T00:47:03.653Z,5.93
2018-12-04T00:52:06.749Z,4.73
2018-12-04T00:57:09.828Z,5.87
2018-12-04T01:02:12.988Z,6.20
2018-12-04T01:07:16.081Z,5.37
2018-12-04T01:12:19.163Z,5.57
2018-12-04T01:17:22.252Z,6.87
2018-12-04T01:22:25.457Z,5.93
2018-12-04T01:27:28.600Z,4.80
2018-12-04T01:32:31.728Z,4.83
2018-12-04T01:37:34.817Z,4.47
2018-12-04T01:42:37.951Z,4.80
2018-12-04T01:47:41.065Z,4.00
2018-12-04T01:52:44.149Z,3.83
2018-12-04T01:57:47.225Z,4.80
2018-12-04T02:02:50.344Z,6.70
2018-12-04T02:07:53.456Z,4.85
2018-12-04T02:12:56.581Z,4.27
2018-12-04T02:17:59.702Z,2.80
2018-12-04T02:23:02.785Z,4.57
2018-12-04T02:28:06.476Z,3.83
2018-12-04T02:33:09.664Z,4.53
2018-12-04T02:38:12.809Z,5.70
2018-12-04T02:43:15.990Z,7.07
2018-12-04T02:48:19.082Z,4.10
2018-12-04T02:53:22.199Z,3.77
2018-12-04T02:58:25.288Z,7.47
2018-12-04T03:03:28.368Z,10.43
2018-12-04T03:08:32.244Z,6.20
2018-12-04T03:13:35.324Z,4.83
2018-12-04T03:18:38.412Z,5.75
2018-12-04T03:23:41.492Z,5.77
2018-12-04T03:28:44.580Z,5.77
2018-12-04T03:33:47.662Z,6.63
2018-12-04T03:38:51.307Z,6.53
2018-12-04T03:43:54.420Z,7.60
2018-12-04T03:48:57.506Z,6.00
2018-12-04T03:54:00.610Z,5.57
2018-12-04T03:59:03.796Z,9.90
2018-12-04T04:04:07.001Z,5.67
2018-12-04T04:09:10.086Z,6.77
2018-12-04T04:14:13.227Z,9.90
2018-12-04T04:19:16.324Z,5.07
2018-12-04T04:24:19.393Z,6.17
2018-12-04T04:29:22.483Z,8.50
2018-12-04T04:34:25.571Z,7.20
2018-12-04T04:39:28.744Z,9.23
2018-12-04T04:44:31.824Z,10.53
2018-12-04T04:49:34.909Z,7.10
2018-12-04T04:54:37.993Z,9.67
2018-12-04T04:59:41.067Z,9.23
2018-12-04T05:04:44.203Z,8.27
2018-12-04T05:09:47.316Z,11.30
2018-12-04T05:14:50.405Z,9.23
2018-12-04T05:19:53.475Z,9.30
2018-12-04T05:24:56.569Z,6.80
2018-12-04T05:29:59.692Z,9.60
2018-12-04T05:35:02.888Z,12.57
2018-12-04T05:40:06.767Z,11.13
2018-12-04T05:45:09.869Z,9.93
2018-12-04T05:50:12.996Z,11.10
2018-12-04T05:55:16.114Z,9.33
2018-12-04T06:00:19.225Z,11.03
2018-12-04T06:05:22.307Z,10.13
2018-12-04T06:10:25.386Z,9.80
2018-12-04T06:15:28.468Z,9.88
2018-12-04T06:20:31.645Z,8.25
2018-12-04T06:25:34.744Z,11.20
2018-12-04T06:30:37.831Z,9.83
2018-12-04T06:35:40.943Z,7.63
2018-12-04T06:40:44.167Z,5.07
2018-12-04T06:45:47.309Z,8.00
2018-12-04T06:50:50.384Z,11.53
2018-12-04T06:55:53.480Z,6.43
2018-12-04T07:00:56.603Z,4.20
2018-12-04T07:05:59.709Z,9.83
2018-12-04T07:11:02.788Z,9.40
2018-12-04T07:16:05.932Z,8.57
2018-12-04T07:21:09.037Z,11.20
2018-12-04T07:26:12.183Z,11.90
2018-12-04T07:31:15.264Z,11.90
2018-12-04T07:36:18.374Z,11.27
2018-12-04T07:41:21.542Z,15.28
2018-12-04T07:46:24.610Z,12.00
2018-12-04T07:51:27.722Z,14.23
2018-12-04T07:56:30.805Z,7.97
2018-12-04T08:01:33.925Z,13.33
2018-12-04T08:06:37.011Z,7.10
2018-12-04T08:11:41.033Z,11.73
2018-12-04T08:16:44.146Z,6.10
2018-12-04T08:21:47.224Z,4.63
2018-12-04T08:26:50.352Z,7.37
2018-12-04T08:31:53.450Z,7.80
2018-12-04T08:36:56.529Z,3.83
2018-12-04T08:41:59.637Z,7.53
2018-12-04T08:47:02.721Z,8.83
2018-12-04T08:52:06.806Z,5.85
2018-12-04T08:57:09.922Z,8.10
2018-12-04T09:02:13.032Z,6.60
2018-12-04T09:07:16.131Z,6.80
2018-12-04T09:12:19.224Z,7.50
2018-12-04T09:17:22.303Z,11.80
2018-12-04T09:22:25.454Z,10.50
2018-12-04T09:27:28.638Z,11.27
2018-12-04T09:32:31.761Z,9.27
2018-12-04T09:37:34.840Z,9.08
2018-12-04T09:42:37.954Z,9.70
2018-12-04T09:47:41.087Z,11.00
2018-12-04T09:52:44.237Z,9.90
2018-12-04T09:57:47.325Z,9.83
2018-12-04T10:02:50.419Z,12.57
2018-12-04T10:07:53.493Z,6.83
2018-12-04T10:12:56.677Z,6.93
2018-12-04T10:17:59.978Z,8.37
2018-12-04T10:23:03.178Z,6.40
2018-12-04T10:28:06.635Z,8.43
2018-12-04T10:33:09.715Z,7.47
2018-12-04T10:38:12.821Z,9.57
2018-12-04T10:43:16.018Z,7.47
2018-12-04T10:48:19.127Z,10.33
2018-12-04T10:53:22.208Z,11.83
2018-12-04T10:58:25.325Z,10.67
2018-12-04T11:03:34.052Z,9.00
2018-12-04T11:08:37.158Z,10.87
2018-12-04T11:13:40.243Z,10.67
2018-12-04T11:18:43.360Z,10.53
2018-12-04T11:23:46.465Z,9.80
2018-12-04T11:28:49.550Z,7.97
2018-12-04T11:33:52.648Z,8.45
2018-12-04T11:38:55.735Z,10.53
2018-12-04T11:43:58.850Z,11.77
2018-12-04T11:49:01.977Z,10.20
2018-12-04T11:54:05.133Z,8.50
2018-12-04T11:59:08.305Z,7.97
2018-12-04T12:04:11.391Z,11.30
2018-12-04T12:09:14.608Z,8.20
2018-12-04T12:14:17.692Z,9.07
2018-12-04T12:19:20.890Z,9.90
2018-12-04T12:24:24.046Z,7.20
2018-12-04T12:29:27.152Z,10.10
2018-12-04T12:34:30.224Z,7.37
2018-12-04T12:39:33.580Z,10.47
2018-12-04T12:44:36.697Z,8.48
2018-12-04T12:49:39.829Z,9.13
2018-12-04T12:54:42.911Z,13.23
2018-12-04T12:59:46.036Z,10.17
2018-12-04T13:04:49.132Z,10.10
2018-12-04T13:09:52.393Z,11.67
2018-12-04T13:14:55.565Z,12.17
2018-12-04T13:19:58.751Z,6.53
2018-12-04T13:25:01.892Z,6.03
2018-12-04T13:30:06.551Z,10.30
2018-12-04T13:35:09.699Z,5.70
2018-12-04T13:40:12.913Z,8.67
2018-12-04T13:45:16.009Z,10.40
2018-12-04T13:50:19.088Z,11.47
2018-12-04T13:55:22.260Z,9.73
2018-12-04T14:00:25.374Z,14.20
2018-12-04T14:05:28.482Z,5.33
2018-12-04T14:10:31.567Z,7.60
2018-12-04T14:20:44.137Z,7.53
2018-12-04T14:25:47.345Z,9.63
2018-12-04T14:30:50.527Z,9.97
2018-12-04T14:35:53.765Z,7.73
2018-12-04T14:40:56.941Z,10.40
2018-12-04T14:46:00.143Z,9.40
2018-12-04T14:51:03.346Z,10.23
2018-12-04T14:56:06.592Z,9.47
2018-12-04T15:01:09.871Z,9.85
2018-12-04T15:06:13.061Z,9.37
2018-12-04T15:11:16.328Z,11.80
2018-12-04T15:16:19.549Z,11.03
2018-12-04T15:21:22.735Z,11.93
2018-12-04T15:26:25.898Z,8.87
2018-12-04T15:31:29.069Z,10.13
2018-12-04T15:36:32.157Z,8.17
2018-12-04T15:41:35.416Z,11.80
2018-12-04T15:46:38.670Z,14.10
2018-12-04T15:51:41.838Z,9.63
2018-12-04T15:56:44.952Z,11.57
2018-12-04T16:01:48.056Z,8.10
2018-12-04T16:06:51.137Z,10.30
2018-12-04T16:11:54.239Z,6.27
2018-12-04T16:16:57.325Z,12.63
2018-12-04T16:22:00.406Z,11.83
2018-12-04T16:27:03.555Z,11.70
2018-12-04T16:32:06.689Z,9.00
2018-12-04T16:37:09.804Z,12.10
2018-12-04T16:42:12.898Z,13.08
2018-12-04T16:47:16.225Z,8.75
2018-12-04T16:52:19.380Z,12.93
2018-12-04T16:57:22.477Z,15.53
2018-12-04T17:02:25.580Z,12.70
2018-12-04T17:07:28.751Z,15.30
2018-12-04T17:12:31.861Z,11.67
2018-12-04T17:17:34.952Z,15.63
2018-12-04T17:22:38.041Z,12.33
2018-12-04T17:27:41.118Z,11.40
2018-12-04T17:32:44.626Z,10.87
2018-12-04T17:37:47.715Z,9.60
2018-12-04T17:42:50.852Z,12.27
2018-12-04T17:47:53.955Z,9.83
2018-12-04T17:52:57.097Z,8.97
2018-12-04T17:58:00.253Z,10.13
2018-12-04T18:03:03.366Z,10.67
2018-12-04T18:08:06.462Z,12.97
2018-12-04T18:13:09.567Z,10.43
2018-12-04T18:18:12.689Z,13.13
2018-12-04T18:23:15.808Z,11.73
2018-12-04T18:28:18.916Z,11.53
2018-12-04T18:33:22.028Z,12.67
2018-12-04T18:38:25.904Z,9.00
2018-12-04T18:43:29.004Z,14.33
2018-12-04T18:48:32.968Z,16.00
2018-12-04T18:53:36.689Z,14.23
2018-12-04T18:58:40.693Z,13.88
2018-12-04T19:03:43.807Z,12.50
2018-12-04T19:08:47.261Z,13.60
2018-12-04T19:13:50.363Z,16.77
2018-12-04T19:18:53.518Z,15.77
2018-12-04T19:23:56.655Z,15.70
2018-12-04T19:29:00.041Z,17.10
2018-12-04T19:34:04.219Z,18.50
2018-12-04T19:39:07.639Z,41.97
2018-12-04T19:44:10.752Z,23.27
2018-12-04T19:49:13.898Z,16.60
2018-12-04T19:54:17.004Z,14.07
2018-12-04T19:59:20.109Z,15.17
2018-12-04T20:04:23.236Z,14.20
2018-12-04T20:09:27.552Z,17.80
2018-12-04T20:14:30.658Z,12.03
2018-12-04T20:19:33.789Z,16.03
2018-12-04T20:24:36.904Z,22.40
2018-12-04T20:29:40.002Z,25.63
2018-12-04T20:34:43.128Z,19.43
2018-12-04T20:39:46.217Z,15.20
2018-12-04T20:44:49.304Z,14.90
2018-12-04T20:49:52.423Z,19.00
2018-12-04T20:54:55.523Z,15.47
2018-12-04T20:59:58.617Z,13.17
2018-12-04T21:05:01.716Z,14.57
2018-12-04T21:10:05.348Z,17.35
2018-12-04T21:15:08.464Z,14.23
2018-12-04T21:20:11.592Z,12.50
2018-12-04T21:25:14.704Z,19.60
2018-12-04T21:30:23.541Z,14.83
2018-12-04T21:35:32.350Z,14.80
2018-12-04T21:40:41.067Z,21.33
2018-12-04T21:45:49.721Z,16.40
2018-12-04T21:50:52.925Z,16.37
2018-12-04T21:55:56.040Z,17.60
2018-12-04T22:00:59.155Z,15.33
2018-12-04T22:06:02.383Z,17.10
2018-12-04T22:11:05.592Z,14.70
2018-12-04T22:16:08.723Z,13.70
2018-12-04T22:21:11.940Z,16.33
2018-12-04T22:26:15.085Z,15.93
2018-12-04T22:31:18.197Z,16.93
2018-12-04T22:36:21.292Z,16.00
2018-12-04T22:41:24.422Z,16.70
2018-12-04T22:46:27.533Z,14.33
2018-12-04T22:51:30.629Z,18.20
2018-12-04T22:56:33.727Z,17.13
2018-12-04T23:01:38.595Z,17.37
2018-12-04T23:06:41.745Z,12.70
2018-12-04T23:11:45.660Z,14.23
2018-12-04T23:16:48.793Z,14.10
2018-12-04T23:21:52.628Z,14.30
2018-12-04T23:26:55.729Z,13.23
2018-12-04T23:31:58.834Z,13.13
2018-12-04T23:37:01.924Z,15.57
2018-12-04T23:42:05.085Z,12.20
2018-12-04T23:47:08.161Z,15.87
2018-12-04T23:52:11.240Z,12.53
2018-12-04T23:57:14.359Z,14.55
